Decoded Metar for KBDR (STRATFORD in CT, USA) (IATA:BDR) | Meteo·Mobile Aviation Weather
aviador You're here:

KBDR Decoded Metar

STRATFORD in CT, USA
Report Time2018-12-16 17:52:00
UTC Time2018-12-16 17:58:07
Flight Rules vfr VFR
Wind050° at 12 kt
W.Decomp.*RWY 06: 12.0 kt HW 0.6 kt RCW
RWY 11: 8.2 kt HW 8.8 kt LCW
W.Rank050° ranks 28
Current wind is above 050° avg. (8.0)
Visibility9999 m
Phenomena:Light Rain
Clouds:Few 022 Hf
Overcast 038 Hf
Expected CloudBase > 1,200 ft AGL from Temp-Dew spread
Ceiling3,800 ft
Temp06°C (ISA -9)
Dew Point03°C (81% RH)
AAT0.2°C
QNH1013 hPa
Density Alt-955 ft
Elevation23 ft
Report Wrong Elevation
Raw Report
KBDR 161752Z 05012KT 7SM -RA FEW022 OVC038 06/03 A2990 RMK AO2
SLP124 P0004 60017 T00560033 10056 20039 56048=

Extra information for KBDR:More info

Metar Taf Metar & Taf Last 4 Metars F.Rules Stats Wind Profile Meteogram Temp Stats Airport Information Weather charts Add Link Nearby VenuesMetar ALERT Operation Metar Decoded Social comments

AIRNAV info for KBDR